createdAt,value
2023-03-13T00:01:20.879Z,95431.28
2023-03-13T00:03:49.568Z,95434.63
2023-03-13T00:06:18.699Z,95437.13
2023-03-13T00:08:48.505Z,95441.72
2023-03-13T00:11:17.503Z,95439.84
2023-03-13T00:13:45.890Z,95449.16
2023-03-13T00:16:16.609Z,95435.34
2023-03-13T00:18:48.575Z,95449.34
2023-03-13T00:21:18.507Z,95452.94
2023-03-13T00:23:48.166Z,95451.47
2023-03-13T00:26:18.668Z,95459.53
2023-03-13T00:28:47.677Z,95459.88
2023-03-13T00:31:17.871Z,95458.53
2023-03-13T00:33:47.900Z,95355.84
2023-03-13T00:36:17.802Z,95450.09
2023-03-13T00:38:46.607Z,95440.47
2023-03-13T00:41:18.028Z,95446.34
2023-03-13T00:43:47.208Z,95438.44
2023-03-13T00:46:17.174Z,95445.19
2023-03-13T00:48:45.777Z,95452.50
2023-03-13T00:51:15.979Z,95453.06
2023-03-13T00:53:44.858Z,95449.53
2023-03-13T00:56:16.298Z,95457.88
2023-03-13T00:58:46.399Z,95407.88
2023-03-13T01:01:16.739Z,95450.16
2023-03-13T01:03:46.936Z,95366.56
2023-03-13T01:06:17.304Z,95457.72
2023-03-13T01:08:45.531Z,95463.56
2023-03-13T01:11:16.620Z,95447.59
2023-03-13T01:13:45.553Z,95449.88
2023-03-13T01:16:16.648Z,95462.28
2023-03-13T01:18:48.248Z,95465.38
2023-03-13T01:21:19.900Z,95410.75
2023-03-13T01:23:48.383Z,95454.13
2023-03-13T01:26:18.387Z,95370.38
2023-03-13T01:28:47.052Z,95416.00
2023-03-13T01:31:17.752Z,95445.22
2023-03-13T01:33:47.878Z,95469.75
2023-03-13T01:36:16.932Z,95409.81
2023-03-13T01:38:45.171Z,95425.28
2023-03-13T01:41:13.965Z,95477.19
2023-03-13T01:43:44.153Z,95477.72
2023-03-13T01:46:16.664Z,95474.53
2023-03-13T01:48:52.954Z,95480.34
2023-03-13T01:51:25.295Z,95482.75
2023-03-13T01:53:59.037Z,95425.28
2023-03-13T01:56:33.182Z,95480.44
2023-03-13T01:59:05.734Z,95481.78
2023-03-13T02:01:34.370Z,95490.78
2023-03-13T02:04:03.028Z,95491.28
2023-03-13T02:06:34.407Z,95479.25
2023-03-13T02:09:06.425Z,95437.66
2023-03-13T02:11:45.269Z,95495.72
2023-03-13T02:14:15.202Z,95489.81
2023-03-13T02:16:47.872Z,95434.69
2023-03-13T02:19:21.249Z,95497.31
2023-03-13T02:21:55.393Z,95506.09
2023-03-13T02:24:31.373Z,95451.69
2023-03-13T02:27:01.194Z,95498.38
2023-03-13T02:29:29.512Z,95493.00
2023-03-13T02:31:57.993Z,95487.41
2023-03-13T02:34:30.044Z,95508.91
2023-03-13T02:36:59.811Z,95506.97
2023-03-13T02:39:30.320Z,95514.97
2023-03-13T02:42:02.056Z,95521.75
2023-03-13T02:44:30.316Z,95510.13
2023-03-13T02:46:58.776Z,95530.31
2023-03-13T02:49:29.835Z,95531.34
2023-03-13T02:52:00.955Z,95529.75
2023-03-13T02:54:34.899Z,95433.13
2023-03-13T02:57:06.465Z,95540.28
2023-03-13T02:59:36.131Z,95543.78
2023-03-13T03:02:04.530Z,95547.47
2023-03-13T03:04:32.861Z,95541.63
2023-03-13T03:07:01.104Z,95548.72
2023-03-13T03:09:29.404Z,95540.50
2023-03-13T03:11:57.826Z,95559.44
2023-03-13T03:14:27.566Z,95561.63
2023-03-13T03:16:55.820Z,95574.06
2023-03-13T03:19:24.107Z,95528.94
2023-03-13T03:21:52.310Z,95573.25
2023-03-13T03:24:20.548Z,95578.72
2023-03-13T03:26:49.031Z,95584.13
2023-03-13T03:29:17.325Z,95591.44
2023-03-13T03:31:46.970Z,95605.94
2023-03-13T03:34:15.371Z,95527.38
2023-03-13T03:36:43.714Z,95613.13
2023-03-13T03:39:12.825Z,95605.25
2023-03-13T03:41:41.103Z,95621.59
2023-03-13T03:44:09.488Z,95556.56
2023-03-13T03:46:37.859Z,95632.50
2023-03-13T03:49:07.539Z,95626.69
2023-03-13T03:51:35.813Z,95626.75
2023-03-13T03:54:04.149Z,95630.06
2023-03-13T03:56:32.450Z,95616.94
2023-03-13T03:59:00.717Z,95644.47
2023-03-13T04:01:29.024Z,95645.13
2023-03-13T04:03:57.324Z,95630.81
2023-03-13T04:06:27.046Z,95652.75
2023-03-13T04:08:55.663Z,95665.38
2023-03-13T04:11:23.939Z,95652.28
2023-03-13T04:13:52.290Z,95619.78
2023-03-13T04:16:20.714Z,95641.69
2023-03-13T04:18:49.046Z,95667.97
2023-03-13T04:21:17.284Z,95673.44
2023-03-13T04:23:47.055Z,95682.25
2023-03-13T04:26:15.385Z,95658.31
2023-03-13T04:28:43.706Z,95676.66
2023-03-13T04:31:12.224Z,95672.31
2023-03-13T04:33:40.979Z,95662.47
2023-03-13T04:36:10.011Z,95579.44
2023-03-13T04:38:38.500Z,95610.84
2023-03-13T04:41:08.342Z,95698.47
2023-03-13T04:43:36.526Z,95568.59
2023-03-13T04:46:04.890Z,95700.53
2023-03-13T04:48:33.362Z,95703.19
2023-03-13T04:51:01.607Z,95651.66
2023-03-13T04:53:29.951Z,95700.91
2023-03-13T04:55:58.182Z,95717.13
2023-03-13T04:58:27.900Z,95707.41
2023-03-13T05:00:57.131Z,95708.16
2023-03-13T05:03:25.774Z,95677.59
2023-03-13T05:05:54.057Z,95728.13
2023-03-13T05:08:22.391Z,95721.31
2023-03-13T05:10:50.760Z,95727.19
2023-03-13T05:13:19.127Z,95719.13
2023-03-13T05:15:48.836Z,95731.63
2023-03-13T05:18:17.194Z,95738.97
2023-03-13T05:20:45.578Z,95743.06
2023-03-13T05:23:13.923Z,95739.56
2023-03-13T05:25:42.473Z,95740.84
2023-03-13T05:28:10.868Z,95739.78
2023-03-13T05:30:39.244Z,95565.63
2023-03-13T05:33:09.058Z,95750.66
2023-03-13T05:35:37.400Z,95753.72
2023-03-13T05:38:05.890Z,95707.31
2023-03-13T05:40:34.185Z,95752.69
2023-03-13T05:43:03.252Z,95754.22
2023-03-13T05:45:31.611Z,95758.00
2023-03-13T05:48:00.210Z,95764.06
2023-03-13T05:50:29.928Z,95746.72
2023-03-13T05:52:58.199Z,95772.13
2023-03-13T05:55:26.455Z,95763.22
2023-03-13T05:57:54.720Z,95764.75
2023-03-13T06:00:23.419Z,95771.84
2023-03-13T06:02:51.719Z,95757.97
2023-03-13T06:05:20.087Z,95766.66
2023-03-13T06:07:50.983Z,95768.09
2023-03-13T06:10:19.675Z,95777.06
2023-03-13T06:12:54.525Z,95769.41
2023-03-13T06:15:23.221Z,95766.28
2023-03-13T06:17:51.549Z,95766.31
2023-03-13T06:20:20.210Z,95762.59
2023-03-13T06:22:49.916Z,95764.41
2023-03-13T06:25:18.363Z,95768.63
2023-03-13T06:27:46.667Z,95769.81
2023-03-13T06:30:15.430Z,95765.78
2023-03-13T06:32:43.976Z,95765.50
2023-03-13T06:35:12.282Z,95766.03
2023-03-13T06:37:40.581Z,95768.22
2023-03-13T06:40:12.137Z,95765.53
2023-03-13T06:42:40.424Z,95761.00
2023-03-13T06:45:10.167Z,95763.41
2023-03-13T06:47:38.462Z,95760.50
2023-03-13T06:50:07.474Z,95765.94
2023-03-13T06:52:43.372Z,95766.41
2023-03-13T06:55:14.114Z,95742.47
2023-03-13T06:57:42.513Z,95756.47
2023-03-13T07:00:12.698Z,95758.84
2023-03-13T07:02:41.079Z,95749.13
2023-03-13T07:05:10.509Z,95751.84
2023-03-13T07:07:38.886Z,95749.84
2023-03-13T07:10:08.142Z,95750.22
2023-03-13T07:12:38.595Z,95744.75
2023-03-13T07:15:08.179Z,95697.25
2023-03-13T07:17:36.804Z,95747.16
2023-03-13T07:20:06.862Z,95732.72
2023-03-13T07:22:35.167Z,95735.59
2023-03-13T07:25:03.573Z,95734.97
2023-03-13T07:27:33.134Z,95734.19
2023-03-13T07:30:02.814Z,95739.34
2023-03-13T07:32:33.346Z,95701.69
2023-03-13T07:35:03.589Z,95729.50
2023-03-13T07:37:31.876Z,95729.31
2023-03-13T07:40:00.232Z,95737.38
2023-03-13T07:42:28.622Z,95739.66
2023-03-13T07:44:56.962Z,95722.88
2023-03-13T07:47:26.683Z,95727.44
2023-03-13T07:49:55.040Z,95722.25
2023-03-13T07:52:23.406Z,95724.31
2023-03-13T07:54:51.734Z,95731.28
2023-03-13T07:57:20.117Z,95724.88
2023-03-13T07:59:48.530Z,95722.09
2023-03-13T08:02:17.154Z,95719.50
2023-03-13T08:04:47.005Z,95723.97
2023-03-13T08:07:15.287Z,95723.97
2023-03-13T08:09:43.827Z,95708.13
2023-03-13T08:12:12.099Z,95707.81
2023-03-13T08:14:40.291Z,95705.66
2023-03-13T08:17:08.653Z,95696.84
2023-03-13T08:19:37.096Z,95689.06
2023-03-13T08:22:06.816Z,95698.25
2023-03-13T08:24:35.161Z,95702.56
2023-03-13T08:27:03.534Z,95686.66
2023-03-13T08:29:31.905Z,95685.91
2023-03-13T08:32:00.219Z,95676.88
2023-03-13T08:34:28.662Z,95670.88
2023-03-13T08:36:57.174Z,95686.66
2023-03-13T08:39:26.854Z,95677.41
2023-03-13T08:41:55.140Z,95668.88
2023-03-13T08:44:23.391Z,95665.59
2023-03-13T08:46:51.636Z,95668.81
2023-03-13T08:49:20.087Z,95633.78
2023-03-13T08:51:48.358Z,95658.59
2023-03-13T08:54:16.730Z,95659.56
2023-03-13T08:56:46.936Z,95653.13
2023-03-13T08:59:15.979Z,95666.16
2023-03-13T09:01:44.296Z,95656.31
2023-03-13T09:04:12.609Z,95577.44
2023-03-13T09:06:41.039Z,95665.16
2023-03-13T09:09:09.983Z,95657.63
2023-03-13T09:11:39.609Z,95657.34
2023-03-13T09:14:11.933Z,95650.88
2023-03-13T09:16:40.414Z,95640.69
2023-03-13T09:19:08.723Z,95629.59
2023-03-13T09:21:37.499Z,95651.97
2023-03-13T09:24:06.526Z,95644.25
2023-03-13T09:26:34.848Z,95634.84
2023-03-13T09:29:03.146Z,95634.59
2023-03-13T09:31:34.453Z,95627.41
2023-03-13T09:34:02.970Z,95632.44
2023-03-13T09:36:31.871Z,95620.19
2023-03-13T09:39:01.326Z,95617.38
2023-03-13T09:41:36.154Z,95622.81
2023-03-13T09:44:12.236Z,95621.31
2023-03-13T09:46:47.204Z,95450.34
2023-03-13T09:49:26.431Z,95518.94
2023-03-13T09:52:01.165Z,95609.84
2023-03-13T09:54:36.179Z,95612.28
2023-03-13T09:57:14.911Z,95593.91
2023-03-13T09:59:50.355Z,95590.34
2023-03-13T10:02:28.372Z,95565.81
2023-03-13T10:05:04.711Z,95588.72
2023-03-13T10:07:33.003Z,95582.63
2023-03-13T10:10:02.516Z,95582.13
2023-03-13T10:12:37.138Z,95577.88
2023-03-13T10:15:22.956Z,95582.00
2023-03-13T10:17:52.757Z,95573.56
2023-03-13T10:20:26.015Z,95573.31
2023-03-13T10:23:00.693Z,95567.16
2023-03-13T10:25:33.638Z,95576.03
2023-03-13T10:28:02.728Z,95563.38
2023-03-13T10:30:32.510Z,95571.06
2023-03-13T10:33:18.907Z,95561.63
2023-03-13T10:35:47.603Z,95545.22
2023-03-13T10:38:19.123Z,95552.91
2023-03-13T10:40:58.716Z,95553.69
2023-03-13T10:43:28.554Z,95545.00
2023-03-13T10:45:57.377Z,95522.38
2023-03-13T10:48:30.688Z,95482.16
2023-03-13T10:51:02.198Z,95525.56
2023-03-13T10:53:37.923Z,95518.78
2023-03-13T10:56:13.000Z,95519.28
2023-03-13T10:58:44.656Z,95411.69
2023-03-13T11:01:22.919Z,95479.66
2023-03-13T11:03:54.787Z,95510.25
2023-03-13T11:06:31.474Z,95501.03
2023-03-13T11:09:14.775Z,95487.50
2023-03-13T11:11:48.880Z,95494.28
2023-03-13T11:14:19.534Z,95466.94
2023-03-13T11:16:52.669Z,95489.78
2023-03-13T11:19:45.527Z,95479.78
2023-03-13T11:22:31.622Z,95469.88
2023-03-13T11:25:17.775Z,95455.38
2023-03-13T11:27:54.472Z,95423.88
2023-03-13T11:30:40.982Z,95454.66
2023-03-13T11:33:20.051Z,95444.19
2023-03-13T11:35:55.334Z,95438.34
2023-03-13T11:38:30.761Z,95434.13
2023-03-13T11:41:09.015Z,95440.59
2023-03-13T11:44:06.423Z,95433.09
2023-03-13T11:46:54.084Z,95425.59
2023-03-13T11:49:59.836Z,95424.00
2023-03-13T11:52:40.414Z,95418.63
2023-03-13T11:55:31.072Z,95422.84
2023-03-13T11:58:12.307Z,95413.06
2023-03-13T12:00:45.758Z,95399.69
2023-03-13T12:03:20.354Z,95403.47
2023-03-13T12:05:53.190Z,95397.41
2023-03-13T12:08:28.552Z,95395.88
2023-03-13T12:11:08.059Z,95390.66
2023-03-13T12:13:41.551Z,95375.69
2023-03-13T12:16:13.683Z,95362.59
2023-03-13T12:18:44.638Z,95374.59
2023-03-13T12:21:20.855Z,95369.50
2023-03-13T12:23:58.929Z,95375.13
2023-03-13T12:26:38.777Z,95338.38
2023-03-13T12:29:15.134Z,95355.78
2023-03-13T12:31:49.369Z,95347.91
2023-03-13T12:34:24.786Z,95349.59
2023-03-13T12:36:58.265Z,95343.81
2023-03-13T12:39:34.619Z,95347.41
2023-03-13T12:42:18.776Z,95349.59
2023-03-13T12:44:47.698Z,95337.78
2023-03-13T12:47:21.693Z,95342.13
2023-03-13T12:50:33.268Z,95332.88
2023-03-13T12:53:38.033Z,95336.84
2023-03-13T12:56:29.764Z,95327.72
2023-03-13T12:59:03.857Z,95329.75
2023-03-13T13:01:36.167Z,95312.31
2023-03-13T13:04:08.515Z,95338.63
2023-03-13T13:06:53.223Z,95323.56
2023-03-13T13:09:25.090Z,95325.06
2023-03-13T13:11:56.525Z,95302.03
2023-03-13T13:15:00.329Z,95323.13
2023-03-13T13:17:41.485Z,95326.22
2023-03-13T13:20:40.178Z,95313.63
2023-03-13T13:23:37.701Z,95316.47
2023-03-13T13:26:47.236Z,95322.06
2023-03-13T13:29:58.209Z,95314.34
2023-03-13T13:32:43.480Z,95290.09
2023-03-13T13:35:36.253Z,95239.97
2023-03-13T13:38:37.288Z,95310.03
2023-03-13T13:41:25.997Z,95309.38
2023-03-13T13:44:28.535Z,95309.06
2023-03-13T13:46:59.624Z,95314.28
2023-03-13T13:49:37.869Z,95312.59
2023-03-13T13:52:37.332Z,95311.19
2023-03-13T13:55:33.768Z,95308.19
2023-03-13T13:58:05.461Z,95305.19
2023-03-13T14:00:42.239Z,95312.53
2023-03-13T14:03:21.677Z,95317.16
2023-03-13T14:05:55.316Z,95301.63
2023-03-13T14:08:29.676Z,95301.56
2023-03-13T14:11:11.458Z,95280.06
2023-03-13T14:13:39.940Z,95309.78
2023-03-13T14:16:25.906Z,95299.06
2023-03-13T14:18:54.712Z,95305.00
2023-03-13T14:21:25.353Z,95300.72
2023-03-13T14:23:54.321Z,95292.75
2023-03-13T14:26:24.662Z,95316.03
2023-03-13T14:28:56.378Z,95248.81
2023-03-13T14:31:29.806Z,95310.16
2023-03-13T14:33:59.629Z,95267.13
2023-03-13T14:36:31.597Z,95291.66
2023-03-13T14:39:01.330Z,95295.44
2023-03-13T14:41:33.974Z,95257.13
2023-03-13T14:44:07.302Z,95293.22
2023-03-13T14:46:38.352Z,95304.59
2023-03-13T14:49:16.854Z,95244.03
2023-03-13T14:51:47.722Z,95300.16
2023-03-13T14:54:30.762Z,95297.06
2023-03-13T14:57:16.412Z,95301.97
2023-03-13T14:59:45.378Z,95306.41
2023-03-13T15:02:20.223Z,95288.84
2023-03-13T15:04:54.025Z,95305.47
2023-03-13T15:07:24.640Z,95301.19
2023-03-13T15:09:53.251Z,95269.34
2023-03-13T15:12:23.643Z,95305.44
2023-03-13T15:14:53.899Z,95302.84
2023-03-13T15:17:23.684Z,95229.88
2023-03-13T15:19:54.318Z,95303.13
2023-03-13T15:22:29.470Z,95309.31
2023-03-13T15:25:06.887Z,95309.56
2023-03-13T15:27:35.953Z,95307.09
2023-03-13T15:30:04.569Z,95312.66
2023-03-13T15:32:36.123Z,95312.41
2023-03-13T15:35:10.767Z,95277.09
2023-03-13T15:37:40.609Z,95316.66
2023-03-13T15:40:16.080Z,95322.56
2023-03-13T15:42:44.849Z,95328.91
2023-03-13T15:45:13.439Z,95339.09
2023-03-13T15:47:41.704Z,95342.31
2023-03-13T15:50:13.914Z,95353.63
2023-03-13T15:52:43.718Z,95329.09
2023-03-13T15:55:13.518Z,95352.22
2023-03-13T15:57:45.617Z,95354.91
2023-03-13T16:00:22.396Z,95329.84
2023-03-13T16:02:51.121Z,95363.50
2023-03-13T16:05:19.693Z,95371.53
2023-03-13T16:07:49.392Z,95371.59
2023-03-13T16:10:23.846Z,95383.19
2023-03-13T16:12:53.553Z,95371.69
2023-03-13T16:15:22.026Z,95389.09
2023-03-13T16:17:50.326Z,95380.88
2023-03-13T16:20:21.835Z,95378.72
2023-03-13T16:22:53.528Z,95392.91
2023-03-13T16:25:23.038Z,95319.28
2023-03-13T16:27:53.595Z,95314.25
2023-03-13T16:30:24.398Z,95406.63
2023-03-13T16:32:52.779Z,95413.88
2023-03-13T16:35:21.185Z,95362.91
2023-03-13T16:37:50.921Z,95430.25
2023-03-13T16:40:22.503Z,95429.16
2023-03-13T16:42:50.920Z,95444.69
2023-03-13T16:45:19.651Z,95445.00
2023-03-13T16:47:48.515Z,95457.94
2023-03-13T16:50:25.721Z,95458.44
2023-03-13T16:52:54.841Z,95468.47
2023-03-13T16:55:28.668Z,95442.69
2023-03-13T16:57:57.377Z,95480.47
2023-03-13T17:00:27.381Z,95491.13
2023-03-13T17:02:56.740Z,95503.69
2023-03-13T17:05:25.656Z,95482.94
2023-03-13T17:07:54.399Z,95498.81
2023-03-13T17:10:26.091Z,95497.75
2023-03-13T17:12:54.693Z,95507.91
2023-03-13T17:15:24.390Z,95515.56
2023-03-13T17:17:54.268Z,95507.25
2023-03-13T17:20:24.713Z,95514.00
2023-03-13T17:22:53.072Z,95516.97
2023-03-13T17:25:21.321Z,95516.56
2023-03-13T17:27:51.179Z,95527.13
2023-03-13T17:30:22.489Z,95519.53
2023-03-13T17:32:51.038Z,95526.00
2023-03-13T17:35:20.543Z,95535.63
2023-03-13T17:37:49.512Z,95540.22
2023-03-13T17:40:21.116Z,95535.16
2023-03-13T17:42:50.936Z,95522.44
2023-03-13T17:45:20.046Z,95553.16
2023-03-13T17:47:49.290Z,95550.00
2023-03-13T17:50:20.257Z,95561.59
2023-03-13T17:52:48.583Z,95570.66
2023-03-13T17:55:17.283Z,95547.31
2023-03-13T17:57:45.655Z,95573.41
2023-03-13T18:00:23.506Z,95572.13
2023-03-13T18:02:52.219Z,95577.19
2023-03-13T18:05:20.588Z,95549.66
2023-03-13T18:07:49.735Z,95583.22
2023-03-13T18:10:21.726Z,95598.72
2023-03-13T18:12:50.893Z,95588.72
2023-03-13T18:15:21.513Z,95599.09
2023-03-13T18:17:50.480Z,95527.19
2023-03-13T18:20:21.062Z,95603.09
2023-03-13T18:22:49.372Z,95603.09
2023-03-13T18:25:18.176Z,95535.19
2023-03-13T18:27:46.391Z,95598.28
2023-03-13T18:30:17.848Z,95612.91
2023-03-13T18:32:47.840Z,95585.56
2023-03-13T18:35:16.928Z,95618.50
2023-03-13T18:37:47.084Z,95615.53
2023-03-13T18:40:21.498Z,95632.78
2023-03-13T18:42:50.818Z,95633.09
2023-03-13T18:45:21.437Z,95634.41
2023-03-13T18:47:51.372Z,95572.31
2023-03-13T18:50:25.299Z,95644.22
2023-03-13T18:52:55.490Z,95620.59
2023-03-13T18:55:24.205Z,95645.00
2023-03-13T18:57:52.592Z,95641.03
2023-03-13T19:00:23.334Z,95648.72
2023-03-13T19:02:53.113Z,95639.19
2023-03-13T19:05:22.132Z,95627.22
2023-03-13T19:07:50.633Z,95599.81
2023-03-13T19:10:24.173Z,95603.16
2023-03-13T19:12:52.891Z,95656.31
2023-03-13T19:15:22.009Z,95661.41
2023-03-13T19:17:50.265Z,95645.97
2023-03-13T19:20:22.467Z,95671.28
2023-03-13T19:22:50.960Z,95671.00
2023-03-13T19:25:21.108Z,95593.00
2023-03-13T19:27:49.730Z,95685.88
2023-03-13T19:30:19.339Z,95673.66
2023-03-13T19:32:47.879Z,95649.25
2023-03-13T19:35:19.126Z,95677.13
2023-03-13T19:37:49.375Z,95684.84
2023-03-13T19:40:20.701Z,95681.91
2023-03-13T19:42:49.004Z,95689.34
2023-03-13T19:45:19.871Z,95692.81
2023-03-13T19:47:48.198Z,95695.44
2023-03-13T19:50:21.520Z,95682.69
2023-03-13T19:52:51.316Z,95682.50
2023-03-13T19:55:19.635Z,95686.06
2023-03-13T19:57:47.898Z,95689.88
2023-03-13T20:00:22.274Z,95674.97
2023-03-13T20:02:52.407Z,95671.47
2023-03-13T20:05:20.675Z,95674.66
2023-03-13T20:07:53.399Z,95682.13
2023-03-13T20:10:22.394Z,95688.13
2023-03-13T20:12:50.744Z,95687.25
2023-03-13T20:15:19.196Z,95687.91
2023-03-13T20:17:47.490Z,95685.16
2023-03-13T20:20:16.517Z,95683.91
2023-03-13T20:22:44.863Z,95691.59
2023-03-13T20:25:16.047Z,95690.03
2023-03-13T20:27:44.400Z,95690.03
2023-03-13T20:30:13.520Z,95695.78
2023-03-13T20:32:56.756Z,95693.59
2023-03-13T20:35:27.489Z,95699.47
2023-03-13T20:37:57.931Z,95697.91
2023-03-13T20:40:27.665Z,95698.19
2023-03-13T20:42:58.186Z,95701.34
2023-03-13T20:45:26.695Z,95693.97
2023-03-13T20:47:55.296Z,95692.91
2023-03-13T20:50:24.410Z,95639.75
2023-03-13T20:52:52.682Z,95709.28
2023-03-13T20:55:20.941Z,95707.19
2023-03-13T20:57:50.759Z,95696.53
2023-03-13T21:00:20.069Z,95702.22
2023-03-13T21:02:49.318Z,95702.16
2023-03-13T21:05:18.190Z,95690.66
2023-03-13T21:07:46.449Z,95690.34
2023-03-13T21:10:15.688Z,95702.34
2023-03-13T21:12:43.954Z,95705.09
2023-03-13T21:15:14.228Z,95688.09
2023-03-13T21:17:42.759Z,95710.41
2023-03-13T21:20:12.556Z,95707.47
2023-03-13T21:22:41.781Z,95703.47
2023-03-13T21:25:12.169Z,95700.56
2023-03-13T21:27:40.690Z,95700.47
2023-03-13T21:30:10.721Z,95695.38
2023-03-13T21:32:41.682Z,95703.38
2023-03-13T21:35:11.062Z,95694.97
2023-03-13T21:37:40.227Z,95683.59
2023-03-13T21:40:10.211Z,95684.72
2023-03-13T21:42:39.046Z,95686.88
2023-03-13T21:45:14.208Z,95608.28
2023-03-13T21:47:43.896Z,95684.19
2023-03-13T21:50:13.470Z,95698.22
2023-03-13T21:52:42.530Z,95695.53
2023-03-13T21:55:13.860Z,95695.78
2023-03-13T21:57:42.179Z,95699.44
2023-03-13T22:00:14.201Z,95671.47
2023-03-13T22:02:45.130Z,95702.31
2023-03-13T22:05:14.027Z,95688.41
2023-03-13T22:07:42.445Z,95694.81
2023-03-13T22:10:12.046Z,95694.59
2023-03-13T22:12:41.279Z,95678.81
2023-03-13T22:15:11.145Z,95683.88
2023-03-13T22:17:41.801Z,95695.53
2023-03-13T22:20:13.856Z,95699.38
2023-03-13T22:22:42.163Z,95691.81
2023-03-13T22:25:10.908Z,95691.47
2023-03-13T22:27:39.262Z,95674.66
2023-03-13T22:30:08.949Z,95682.91
2023-03-13T22:32:41.940Z,95679.50
2023-03-13T22:35:32.280Z,95673.69
2023-03-13T22:38:04.230Z,95673.84
2023-03-13T22:40:32.587Z,95637.75
2023-03-13T22:43:00.835Z,95670.34
2023-03-13T22:45:30.667Z,95666.44
2023-03-13T22:47:59.200Z,95582.75
2023-03-13T22:50:28.871Z,95667.75
2023-03-13T22:52:57.261Z,95666.97
2023-03-13T22:55:25.480Z,95654.88
2023-03-13T22:57:53.819Z,95645.44
2023-03-13T23:00:22.866Z,95651.69
2023-03-13T23:02:51.186Z,95635.41
2023-03-13T23:05:19.399Z,95634.72
2023-03-13T23:07:50.951Z,95634.28
2023-03-13T23:10:19.778Z,95639.25
2023-03-13T23:12:48.089Z,95625.00
2023-03-13T23:15:16.399Z,95653.41
2023-03-13T23:17:44.606Z,95641.50
2023-03-13T23:20:14.113Z,95633.00
2023-03-13T23:22:43.192Z,95630.88
2023-03-13T23:25:14.061Z,95641.97
2023-03-13T23:27:43.492Z,95633.06
2023-03-13T23:30:13.801Z,95619.41
2023-03-13T23:32:44.828Z,95631.69
2023-03-13T23:35:14.323Z,95644.03
2023-03-13T23:37:42.676Z,95640.38
2023-03-13T23:40:13.167Z,95641.72
2023-03-13T23:42:41.526Z,95632.53
2023-03-13T23:45:10.161Z,95646.03
2023-03-13T23:47:38.548Z,95642.38
2023-03-13T23:50:07.862Z,95566.41
2023-03-13T23:52:36.515Z,95632.06
2023-03-13T23:55:05.662Z,95632.22
2023-03-13T23:57:37.688Z,95580.53
